Time;durP1;ratioP1;P1;durP2;ratioP2;P2;SDS_P1;SDS_P2;PMS_P1;PMS_P2;Temp;Humidity;BMP_temperature;BMP_pressure;BME280_temperature;BME280_humidity;BME280_pressure;Samples;Min_cycle;Max_cycle;Signal;HPM_P1;HPM_P2
2023/07/01 00:01:56;;;;;;;3.97;2.42;;;17.30;99.90;;;-144.05;49.56;56855.22;5032696;28;20073;-84
2023/07/01 00:04:22;;;;;;;5.82;2.40;;;17.30;99.90;;;-144.05;49.13;56887.06;5032317;28;20117;-84
2023/07/01 00:06:48;;;;;;;5.57;2.30;;;17.40;99.90;;;-144.05;48.84;56893.44;5013974;28;20025;-84
2023/07/01 00:09:13;;;;;;;2.90;1.88;;;17.40;99.90;;;-144.05;48.63;56874.31;5013866;28;20029;-84
2023/07/01 00:11:39;;;;;;;5.00;2.33;;;17.50;99.90;;;-144.05;48.47;56863.69;5014117;28;20124;-83
2023/07/01 00:14:05;;;;;;;7.30;2.40;;;17.50;99.90;;;-144.05;48.20;56859.47;5014206;28;20030;-84
2023/07/01 00:16:31;;;;;;;5.30;2.25;;;17.50;99.90;;;-144.05;48.06;56889.19;5013958;28;20033;-85
2023/07/01 00:18:57;;;;;;;5.90;2.25;;;17.60;99.90;;;-144.05;47.74;56853.09;5013709;28;20057;-83
2023/07/01 00:21:23;;;;;;;3.65;2.20;;;17.60;99.90;;;-144.05;47.79;56857.34;5014111;28;20508;-85
2023/07/01 00:23:49;;;;;;;4.68;2.10;;;17.60;99.90;;;-144.05;47.76;56855.22;5014629;28;20021;-84
2023/07/01 00:26:15;;;;;;;3.67;2.00;;;17.60;99.90;;;-144.05;47.84;56857.34;5005666;28;20490;-85
2023/07/01 00:28:41;;;;;;;3.40;2.10;;;17.60;99.90;;;-144.05;47.93;56872.19;4995255;28;20033;-86
2023/07/01 00:31:06;;;;;;;5.90;2.15;;;17.60;99.90;;;-144.05;47.47;56882.81;4995160;28;20030;-86
2023/07/01 00:33:32;;;;;;;6.03;2.10;;;17.60;99.90;;;-144.05;47.80;56865.81;5019205;28;20507;-85
2023/07/01 00:35:58;;;;;;;2.53;1.88;;;17.60;99.90;;;-144.05;47.43;56853.09;5022526;28;20045;-82
2023/07/01 00:38:24;;;;;;;7.57;2.10;;;17.60;99.90;;;-144.05;48.06;56895.56;4999332;28;20121;-84
2023/07/01 00:40:50;;;;;;;5.97;2.17;;;17.60;99.90;;;-144.05;47.40;56867.94;4998239;28;20026;-84
2023/07/01 00:43:17;;;;;;;3.92;1.58;;;17.60;99.90;;;-144.05;47.44;56874.31;5016103;28;20026;-84
2023/07/01 00:45:43;;;;;;;6.07;2.05;;;17.60;99.90;;;-144.05;47.53;56857.34;4998220;28;20084;-84
2023/07/01 00:48:24;;;;;;;2.83;1.80;;;17.60;99.90;;;-144.05;47.28;56887.06;4997882;28;20036;-83
2023/07/01 00:50:54;;;;;;;5.70;2.08;;;17.70;99.90;;;-144.05;47.41;56853.09;4997977;28;20026;-84
2023/07/01 00:53:22;;;;;;;4.72;1.92;;;17.70;99.90;;;-144.05;47.52;56870.06;4997827;28;20100;-85
2023/07/01 00:55:48;;;;;;;3.88;1.75;;;17.70;99.90;;;-144.05;47.37;56880.69;4997838;28;20034;-84
2023/07/01 00:58:14;;;;;;;8.15;2.63;;;17.60;99.90;;;-144.05;47.52;56872.19;5015842;28;20037;-86
2023/07/01 01:00:41;;;;;;;7.13;1.95;;;17.70;99.90;;;-144.05;47.69;56872.19;5015513;28;20101;-83
2023/07/01 01:03:36;;;;;;;5.38;1.90;;;17.60;99.90;;;-144.05;48.05;56850.97;4998201;28;20026;-86
2023/07/01 01:06:33;;;;;;;2.30;1.75;;;17.60;99.90;;;-144.05;47.78;56853.09;4997677;28;20030;-83
2023/07/01 01:09:12;;;;;;;3.88;2.08;;;17.60;99.90;;;-144.05;47.95;56872.19;4997734;28;20367;-86
2023/07/01 01:11:46;;;;;;;3.80;2.10;;;17.70;99.90;;;-144.05;47.85;56850.97;4997910;28;20168;-84
2023/07/01 01:14:16;;;;;;;4.03;1.80;;;17.70;99.90;;;-144.05;47.81;56880.69;4997849;28;20029;-84
2023/07/01 01:16:46;;;;;;;5.47;1.90;;;17.70;99.90;;;-144.05;48.00;56865.81;4997434;28;20022;-84
2023/07/01 01:19:32;;;;;;;5.70;2.58;;;17.70;99.90;;;-144.05;47.65;56870.06;4997909;28;20022;-84
2023/07/01 01:22:26;;;;;;;3.53;1.90;;;17.70;99.90;;;-144.05;47.81;56857.34;4997341;28;20033;-84
2023/07/01 01:25:05;;;;;;;4.45;2.00;;;17.70;99.90;;;-144.05;47.79;56882.81;4997493;28;20034;-83
2023/07/01 01:27:40;;;;;;;5.20;2.00;;;17.60;99.90;;;-144.05;47.60;56853.09;5034608;28;20065;-84
2023/07/01 01:30:07;;;;;;;2.87;1.60;;;17.70;99.90;;;-144.05;48.02;56884.94;5016622;28;20537;-84
2023/07/01 01:32:35;;;;;;;6.18;2.13;;;17.70;99.90;;;-144.05;48.31;56863.69;5016930;28;20037;-84
2023/07/01 01:35:06;;;;;;;4.50;2.28;;;17.60;99.90;;;-144.05;48.14;56887.06;5034696;28;20043;-85
2023/07/01 01:38:10;;;;;;;4.50;1.92;;;17.60;99.90;;;-144.05;48.16;56891.31;5017000;28;20064;-84
2023/07/01 01:40:56;;;;;;;3.83;1.88;;;17.60;99.90;;;-144.05;48.34;56874.31;5016863;28;20038;-85
2023/07/01 01:43:56;;;;;;;2.33;1.40;;;17.70;99.90;;;-144.05;48.53;56865.81;5016449;28;20091;-83
2023/07/01 01:46:25;;;;;;;7.55;2.20;;;17.60;99.90;;;-144.05;48.43;56882.81;5034906;28;20049;-85
2023/07/01 01:48:59;;;;;;;8.68;2.03;;;17.60;99.90;;;-144.05;48.40;56865.81;5016650;28;20056;-84
2023/07/01 01:51:28;;;;;;;3.58;2.03;;;17.60;99.90;;;-144.05;48.74;56870.06;5017006;28;20025;-81
2023/07/01 01:53:57;;;;;;;3.03;1.70;;;17.60;99.90;;;-144.05;48.84;56887.06;5017170;28;20047;-85
2023/07/01 01:56:27;;;;;;;3.53;1.77;;;17.60;99.90;;;-144.05;49.10;56870.06;5016623;28;20029;-85
2023/07/01 01:58:53;;;;;;;2.72;1.77;;;17.60;99.90;;;-144.05;48.93;56882.81;5016574;28;20088;-85
2023/07/01 02:01:19;;;;;;;3.80;1.60;;;17.60;99.90;;;-144.05;48.97;56876.44;5016071;28;20025;-82
2023/07/01 02:03:45;;;;;;;4.07;2.10;;;17.60;99.90;;;-144.05;49.41;56870.06;5016262;28;20072;-83
2023/07/01 02:06:11;;;;;;;7.65;2.00;;;17.60;99.90;;;-144.05;49.40;56846.72;5016517;28;20033;-84
2023/07/01 02:08:37;;;;;;;2.83;2.00;;;17.60;99.90;;;-144.05;49.64;56859.47;5034395;28;20481;-83
2023/07/01 02:11:03;;;;;;;3.63;1.80;;;17.50;99.90;;;-144.05;49.44;56897.69;5015885;28;20135;-84
2023/07/01 02:13:29;;;;;;;2.97;1.70;;;17.50;99.90;;;-144.05;49.40;56865.81;5016062;28;20025;-85
2023/07/01 02:15:55;;;;;;;3.85;1.77;;;17.50;99.90;;;-144.05;49.54;56861.56;5033990;28;20044;-85
2023/07/01 02:18:21;;;;;;;3.58;1.85;;;17.60;99.90;;;-144.05;49.74;56865.81;5016215;28;20073;-83
2023/07/01 02:20:47;;;;;;;3.83;1.80;;;17.60;99.90;;;-144.05;49.59;56876.44;5016885;28;20120;-86
2023/07/01 02:23:13;;;;;;;4.47;2.10;;;17.50;99.90;;;-144.05;49.79;56880.69;5015967;28;20037;-85
2023/07/01 02:25:38;;;;;;;3.28;1.88;;;17.50;99.90;;;-144.05;49.43;56908.31;5012303;28;20229;-85
2023/07/01 02:28:04;;;;;;;2.40;1.85;;;17.60;99.90;;;-144.05;49.66;56882.81;5021343;28;20071;-84
2023/07/01 02:30:31;;;;;;;4.88;2.15;;;17.60;99.90;;;-144.05;49.32;56904.06;5001770;28;20041;-84
2023/07/01 02:32:57;;;;;;;5.45;1.90;;;17.50;99.90;;;-144.05;49.90;56874.31;4995996;28;20076;-84
2023/07/01 02:35:23;;;;;;;3.55;1.95;;;17.60;99.90;;;-144.05;49.50;56882.81;4996036;28;20030;-84
2023/07/01 02:37:49;;;;;;;3.42;1.92;;;17.50;99.90;;;-144.05;49.64;56861.56;5013698;28;20040;-84
2023/07/01 02:40:15;;;;;;;4.45;2.22;;;17.50;99.90;;;-144.05;49.81;56876.44;4995837;28;20056;-83
2023/07/01 02:42:41;;;;;;;5.43;1.88;;;17.60;99.90;;;-144.05;49.62;56887.06;4995842;28;20026;-85
2023/07/01 02:45:07;;;;;;;4.70;2.08;;;17.60;99.90;;;-144.05;49.37;56867.94;4995940;28;20316;-84
2023/07/01 02:47:33;;;;;;;2.63;1.77;;;17.60;99.90;;;-144.05;48.98;56882.81;5013525;28;20045;-82
2023/07/01 02:50:00;;;;;;;4.78;1.88;;;17.60;99.90;;;-144.05;49.27;56867.94;4995534;28;20037;-84
2023/07/01 02:52:26;;;;;;;2.65;1.80;;;17.60;99.90;;;-144.05;49.34;56876.44;4995667;28;20026;-86
2023/07/01 02:54:52;;;;;;;3.25;1.88;;;17.60;99.90;;;-144.05;49.43;56863.69;4995617;28;20044;-85
2023/07/01 02:57:18;;;;;;;3.83;1.77;;;17.60;99.90;;;-144.05;49.19;56861.56;4995326;28;20049;-83
2023/07/01 02:59:46;;;;;;;2.92;2.00;;;17.60;99.90;;;-144.05;49.01;56874.31;4996088;28;20420;-84
2023/07/01 03:02:12;;;;;;;7.28;1.90;;;17.60;99.90;;;-144.05;48.97;56848.84;5013152;28;20057;-83
2023/07/01 03:04:38;;;;;;;4.88;1.90;;;17.60;99.90;;;-144.05;49.06;56874.31;4995655;28;20053;-84
2023/07/01 03:07:04;;;;;;;4.10;1.63;;;17.70;99.90;;;-144.05;48.83;56870.06;4995425;28;20092;-83
2023/07/01 03:09:30;;;;;;;6.60;2.10;;;17.60;99.90;;;-144.05;49.22;56876.44;4995270;28;20033;-83
2023/07/01 03:11:56;;;;;;;3.00;1.80;;;17.60;99.90;;;-144.05;49.11;56865.81;5013324;28;20088;-84
2023/07/01 03:14:22;;;;;;;3.53;1.67;;;17.60;99.90;;;-144.05;49.00;56853.09;4995962;28;20033;-84
2023/07/01 03:16:49;;;;;;;3.38;1.90;;;17.60;99.90;;;-144.05;49.30;56870.06;4995452;28;20445;-85
2023/07/01 03:19:16;;;;;;;4.65;1.63;;;17.60;99.90;;;-144.05;49.05;56876.44;4995239;28;20442;-84
2023/07/01 03:21:41;;;;;;;3.83;1.95;;;17.60;99.90;;;-144.05;49.64;56865.81;4995556;28;20455;-85
2023/07/01 03:24:07;;;;;;;6.43;2.05;;;17.50;99.90;;;-144.05;49.71;56874.31;4995375;28;20034;-85
2023/07/01 03:26:33;;;;;;;2.75;1.48;;;17.50;99.90;;;-144.05;49.68;56859.47;4995212;28;20025;-83
2023/07/01 03:28:59;;;;;;;5.28;1.92;;;17.50;99.90;;;-144.05;49.78;56876.44;4995348;28;20111;-85
2023/07/01 03:31:25;;;;;;;6.28;2.05;;;17.50;99.90;;;-144.05;49.52;56880.69;4995217;28;20076;-83
2023/07/01 03:33:51;;;;;;;6.05;1.73;;;17.50;99.90;;;-144.05;49.72;56872.19;4995177;28;20115;-84
2023/07/01 03:36:17;;;;;;;4.78;1.90;;;17.50;99.90;;;-144.05;49.50;56867.94;4995037;28;20048;-85
2023/07/01 03:38:43;;;;;;;3.67;1.88;;;17.60;99.90;;;-144.05;49.33;56859.47;4995170;28;20034;-86
2023/07/01 03:41:09;;;;;;;3.83;1.83;;;17.60;99.90;;;-144.05;49.60;56876.44;4994919;28;20303;-85
2023/07/01 03:43:35;;;;;;;2.17;1.52;;;17.50;99.90;;;-144.05;49.62;56882.81;4995350;28;20032;-83
2023/07/01 03:46:02;;;;;;;3.00;1.88;;;17.50;99.90;;;-144.05;49.76;56884.94;4994931;28;20057;-84
2023/07/01 03:48:29;;;;;;;4.93;2.10;;;17.60;99.90;;;-144.05;49.26;56872.19;5012643;28;20462;-84
2023/07/01 03:50:55;;;;;;;4.63;1.73;;;17.50;99.90;;;-144.05;49.25;56872.19;4994990;28;20493;-84
2023/07/01 03:53:21;;;;;;;3.17;1.92;;;17.60;99.90;;;-144.05;49.52;56865.81;4994965;28;20030;-86
2023/07/01 03:55:47;;;;;;;2.63;1.70;;;17.60;99.90;;;-144.05;49.52;56863.69;4995089;28;20049;-84
2023/07/01 03:58:21;;;;;;;6.30;2.20;;;17.60;99.90;;;-144.05;49.79;56857.34;4995099;28;20025;-84
2023/07/01 04:00:48;;;;;;;4.93;2.05;;;17.60;99.90;;;-144.05;49.58;56878.56;4995048;28;20113;-84
2023/07/01 04:03:14;;;;;;;5.28;1.85;;;17.60;99.90;;;-144.05;49.61;56874.31;4995070;28;20037;-85
2023/07/01 04:05:40;;;;;;;4.40;1.80;;;17.60;99.90;;;-144.05;49.33;56882.81;4995398;28;20030;-85
2023/07/01 04:08:06;;;;;;;3.63;1.88;;;17.70;99.90;;;-144.05;49.19;56878.56;4994542;28;20545;-83
2023/07/01 04:10:32;;;;;;;3.92;1.80;;;17.70;99.90;;;-144.05;49.22;56882.81;4995648;28;20397;-85
2023/07/01 04:13:00;;;;;;;2.85;1.90;;;17.80;99.90;;;-144.05;48.62;56859.47;4995467;28;20482;-86
2023/07/01 04:15:27;;;;;;;2.63;1.65;;;17.80;99.90;;;-144.05;48.97;56876.44;4996037;28;20116;-85
2023/07/01 04:17:54;;;;;;;2.53;1.50;;;17.80;99.90;;;-144.05;48.79;56897.69;5012694;28;20034;-87
2023/07/01 04:20:20;;;;;;;3.15;1.88;;;17.80;99.90;;;-144.05;48.65;56859.47;5001736;28;20068;-84
2023/07/01 04:22:47;;;;;;;5.07;1.70;;;17.90;99.90;;;-144.05;48.47;56857.34;4995370;28;20034;-84
2023/07/01 04:25:13;;;;;;;6.00;2.40;;;17.90;99.90;;;-144.05;48.46;56863.69;4994366;28;20195;-84
2023/07/01 04:27:42;;;;;;;6.15;2.15;;;18.00;99.90;;;-144.05;47.73;56865.81;4994313;28;20471;-83
2023/07/01 04:30:13;;;;;;;4.07;1.60;;;18.00;99.90;;;-144.05;47.95;56859.47;4994219;28;20049;-85
2023/07/01 04:32:38;;;;;;;4.90;2.08;;;18.10;99.90;;;-144.05;47.82;56863.69;4994519;28;20017;-83
2023/07/01 04:35:05;;;;;;;4.35;1.88;;;18.20;99.90;;;-144.05;48.06;56863.69;5011956;28;20044;-84
2023/07/01 04:37:31;;;;;;;6.47;1.67;;;18.20;99.90;;;-144.05;47.65;56897.69;4994535;28;20118;-84
2023/07/01 04:39:57;;;;;;;3.25;1.92;;;18.20;99.90;;;-144.05;47.50;56882.81;4994270;28;20117;-85
2023/07/01 04:42:23;;;;;;;3.50;1.70;;;18.30;99.90;;;-144.05;47.43;56859.47;4994769;28;20073;-84
2023/07/01 04:44:53;;;;;;;4.53;1.85;;;18.30;99.90;;;-144.05;48.23;56874.31;4994187;28;20026;-84
2023/07/01 04:47:24;;;;;;;4.25;1.65;;;18.30;99.90;;;-144.05;48.20;56876.44;4994937;28;20041;-83
2023/07/01 04:49:52;;;;;;;4.80;2.03;;;18.20;99.90;;;-144.05;48.06;56872.19;4994598;28;20054;-84
2023/07/01 04:52:24;;;;;;;3.15;1.95;;;18.20;99.90;;;-144.05;47.82;56859.47;4994416;28;20430;-85
2023/07/01 04:54:51;;;;;;;5.35;2.13;;;18.30;99.90;;;-144.05;47.96;56855.22;4994211;28;20105;-84
2023/07/01 04:57:18;;;;;;;4.90;2.30;;;18.30;99.90;;;-144.05;48.12;56884.94;4995610;28;20040;-85
2023/07/01 04:59:44;;;;;;;6.18;1.90;;;18.20;99.90;;;-144.05;48.00;56872.19;4997024;28;20045;-84
2023/07/01 05:02:10;;;;;;;4.30;1.67;;;18.30;99.90;;;-144.05;48.01;56887.06;4997360;28;20034;-85
2023/07/01 05:04:37;;;;;;;6.88;1.85;;;18.30;99.90;;;-144.05;47.82;56865.81;4998380;28;20030;-84
2023/07/01 05:07:05;;;;;;;4.05;2.40;;;18.30;99.90;;;-144.05;48.36;56872.19;5015977;28;20105;-83
2023/07/01 05:09:30;;;;;;;6.30;2.50;;;18.20;99.90;;;-144.05;48.34;56842.47;4998678;28;20037;-83
2023/07/01 05:11:56;;;;;;;4.97;1.70;;;18.20;99.90;;;-144.05;48.27;56844.59;5016145;28;20030;-86
2023/07/01 05:14:22;;;;;;;3.85;1.90;;;18.20;99.90;;;-144.05;48.90;56857.34;4998747;28;20038;-83
2023/07/01 05:16:48;;;;;;;4.05;1.80;;;18.20;99.90;;;-144.05;48.49;56884.94;4998589;28;20022;-84
2023/07/01 05:19:14;;;;;;;8.05;2.20;;;18.20;99.90;;;-144.05;48.69;56880.69;4999901;28;20089;-85
2023/07/01 05:22:00;;;;;;;4.22;2.17;;;18.30;99.90;;;-144.05;48.67;56874.31;5019560;28;20026;-85
2023/07/01 05:24:26;;;;;;;3.25;1.92;;;18.30;99.90;;;-144.05;48.08;56874.31;5020247;28;20060;-84
2023/07/01 05:26:52;;;;;;;3.83;2.10;;;18.30;99.90;;;-144.05;48.23;56880.69;5002572;28;20120;-84
2023/07/01 05:29:20;;;;;;;4.00;2.00;;;18.30;99.90;;;-144.05;48.22;56865.81;5001962;28;20029;-83
2023/07/01 05:31:48;;;;;;;4.75;1.90;;;18.40;99.90;;;-144.05;48.26;56874.31;5001323;28;20030;-84
2023/07/01 05:34:15;;;;;;;3.55;1.77;;;18.50;99.90;;;-144.05;48.10;56853.09;5002268;28;20121;-85
2023/07/01 05:36:41;;;;;;;4.65;1.83;;;18.50;99.90;;;-144.05;48.17;56893.44;5000871;28;20425;-83
2023/07/01 05:39:07;;;;;;;4.65;2.17;;;18.60;99.90;;;-144.05;47.67;56901.94;5001338;28;20083;-84
2023/07/01 05:41:33;;;;;;;3.45;2.20;;;18.60;99.90;;;-144.05;47.46;56876.44;5001424;28;20030;-84
2023/07/01 05:43:59;;;;;;;4.63;2.30;;;18.60;99.90;;;-144.05;47.22;56876.44;5001324;28;20058;-84
2023/07/01 05:46:26;;;;;;;4.82;1.98;;;18.70;99.90;;;-144.05;47.31;56848.84;5001086;28;20126;-82
2023/07/01 05:48:52;;;;;;;5.43;2.22;;;18.70;99.90;;;-144.05;47.47;56870.06;5000317;28;20505;-85
2023/07/01 05:51:18;;;;;;;3.88;1.88;;;18.70;99.90;;;-144.05;47.41;56882.81;5000049;28;20477;-85
2023/07/01 05:53:48;;;;;;;4.75;1.80;;;18.80;99.90;;;-144.05;47.40;56865.81;4999826;28;20037;-84
2023/07/01 05:56:15;;;;;;;2.90;1.92;;;18.80;99.90;;;-144.05;47.55;56889.19;4999524;28;20034;-82
2023/07/01 05:58:42;;;;;;;5.35;2.33;;;18.90;99.90;;;-144.05;46.98;56887.06;4998315;28;20520;-82
2023/07/01 06:01:08;;;;;;;4.10;2.20;;;19.00;99.90;;;-144.05;46.88;56880.69;4997617;28;20029;-83
2023/07/01 06:03:35;;;;;;;4.20;2.03;;;19.20;99.90;;;-144.05;46.65;56861.56;4997488;28;20056;-82
2023/07/01 06:06:01;;;;;;;4.22;1.88;;;19.30;99.90;;;-144.05;46.66;56882.81;4999462;28;20390;-85
2023/07/01 06:08:27;;;;;;;6.30;2.03;;;19.30;99.90;;;-144.05;46.09;56897.69;4998722;28;20037;-84
2023/07/01 06:10:55;;;;;;;4.82;1.88;;;19.40;99.90;;;-144.05;46.63;56880.69;5000086;28;20445;-86
2023/07/01 06:13:21;;;;;;;5.00;2.28;;;19.30;99.90;;;-144.05;46.37;56880.69;5017581;28;20037;-80
2023/07/01 06:15:47;;;;;;;6.50;2.40;;;19.30;99.90;;;-144.05;47.02;56867.94;5009598;28;20605;-83
2023/07/01 06:18:13;;;;;;;6.88;2.50;;;19.30;99.90;;;-144.05;46.71;56882.81;5000779;28;20117;-83
2023/07/01 06:20:39;;;;;;;4.90;2.10;;;19.30;99.90;;;-144.05;46.59;56874.31;4999406;28;20026;-84
2023/07/01 06:23:05;;;;;;;8.38;2.50;;;19.30;99.90;;;-144.05;46.67;56880.69;4999326;28;20073;-85
2023/07/01 06:25:31;;;;;;;8.05;2.47;;;19.40;99.90;;;-144.05;46.65;56887.06;4999170;28;20029;-84
2023/07/01 06:27:57;;;;;;;7.20;2.08;;;19.30;99.90;;;-144.05;46.64;56870.06;4999370;28;20064;-86
2023/07/01 06:30:23;;;;;;;5.63;2.08;;;19.30;99.90;;;-144.05;47.12;56880.69;5015845;28;20125;-86
2023/07/01 06:32:49;;;;;;;5.55;2.58;;;19.30;99.90;;;-144.05;47.04;56863.69;4998768;28;20038;-86
2023/07/01 06:35:14;;;;;;;7.07;2.58;;;19.10;99.90;;;-144.05;47.05;56857.34;4999361;28;20034;-85
2023/07/01 06:37:40;;;;;;;4.65;1.95;;;19.10;99.90;;;-144.05;47.16;56855.22;4999638;28;20053;-85
2023/07/01 06:40:07;;;;;;;7.30;2.83;;;19.00;99.90;;;-144.05;47.40;56874.31;4998888;28;20022;-87
2023/07/01 06:42:35;;;;;;;4.50;2.13;;;19.00;99.90;;;-144.05;47.64;56880.69;4999453;28;20030;-87
2023/07/01 06:45:01;;;;;;;5.72;2.13;;;18.90;99.90;;;-144.05;47.88;56861.56;5002099;28;20022;-83
2023/07/01 06:47:27;;;;;;;6.05;2.63;;;18.90;99.90;;;-144.05;49.88;56859.47;4997606;28;20037;-83
2023/07/01 06:49:53;;;;;;;6.88;2.05;;;18.80;99.90;;;-144.05;50.51;56853.09;4997395;28;20026;-81
2023/07/01 06:52:19;;;;;;;4.28;2.45;;;18.70;99.90;;;-144.05;51.69;56870.06;5019268;28;20087;-84
2023/07/01 06:54:44;;;;;;;4.45;2.00;;;18.50;99.90;;;-144.05;53.35;56865.81;5009464;28;20041;-85
2023/07/01 06:57:10;;;;;;;4.97;2.38;;;18.20;99.90;;;-144.05;55.16;56887.06;5006203;28;20080;-85
2023/07/01 06:59:36;;;;;;;5.07;2.38;;;18.00;99.90;;;-144.05;56.74;56878.56;5006660;28;20030;-82
2023/07/01 07:02:02;;;;;;;7.97;2.97;;;17.80;99.90;;;-144.05;58.99;56865.81;5012326;28;20084;-83
2023/07/01 07:04:28;;;;;;;6.22;2.72;;;17.60;99.90;;;-144.05;60.73;56887.06;5013888;28;20391;-85
2023/07/01 07:06:54;;;;;;;7.03;2.20;;;17.40;99.90;;;-144.05;63.13;56870.06;4997284;28;20065;-85
2023/07/01 07:09:20;;;;;;;7.70;2.45;;;17.20;99.90;;;-144.05;65.78;56865.81;5014324;28;20097;-85
2023/07/01 07:11:46;;;;;;;5.05;2.70;;;17.10;99.90;;;-144.05;65.62;56872.19;4996794;28;20060;-84
2023/07/01 07:14:12;;;;;;;4.60;2.20;;;17.00;99.90;;;-144.05;66.51;56887.06;4996989;28;20034;-85
2023/07/01 07:16:45;;;;;;;6.47;2.65;;;17.00;99.90;;;-144.05;67.63;56867.94;4995621;28;20055;-85
2023/07/01 07:19:11;;;;;;;4.35;2.55;;;16.90;99.90;;;-144.05;68.50;56872.19;4996819;28;20037;-88
2023/07/01 07:21:36;;;;;;;6.25;2.33;;;16.90;99.90;;;-144.05;69.87;56857.34;4996806;28;20041;-85
2023/07/01 07:24:03;;;;;;;6.25;2.53;;;16.90;99.90;;;-144.05;69.38;56853.09;4996593;28;20088;-84
2023/07/01 07:26:29;;;;;;;5.25;3.22;;;16.80;99.90;;;-144.05;69.75;56876.44;5007473;28;20065;-87
2023/07/01 07:28:55;;;;;;;7.30;2.80;;;16.80;99.90;;;-144.05;70.19;56844.59;5015765;28;20407;-85
2023/07/01 07:31:21;;;;;;;6.28;2.90;;;16.90;99.90;;;-144.05;69.61;56882.81;5015508;28;20033;-87
2023/07/01 07:33:46;;;;;;;4.93;2.80;;;16.90;99.90;;;-144.05;69.04;56878.56;5015662;28;20032;-85
2023/07/01 07:36:12;;;;;;;6.60;3.13;;;16.90;99.90;;;-144.05;67.78;56863.69;5015069;28;20029;-86
2023/07/01 07:38:38;;;;;;;7.03;2.67;;;16.90;99.90;;;-144.05;68.05;56870.06;5015200;28;20030;-84
2023/07/01 07:41:04;;;;;;;6.05;2.53;;;17.00;99.90;;;-144.05;67.17;56880.69;5034277;28;20366;-85
2023/07/01 07:43:30;;;;;;;4.85;2.70;;;17.00;99.90;;;-144.05;67.66;56876.44;5016031;28;20032;-87
2023/07/01 07:45:56;;;;;;;6.32;2.50;;;17.10;99.90;;;-144.05;68.86;56906.19;5016712;28;20064;-85
2023/07/01 07:48:22;;;;;;;6.65;2.88;;;17.10;99.90;;;-144.05;67.44;56861.56;5017285;28;20033;-85
2023/07/01 07:50:48;;;;;;;5.78;2.67;;;17.10;99.90;;;-144.05;67.25;56878.56;5017899;28;20477;-86
2023/07/01 07:53:14;;;;;;;5.85;2.60;;;17.20;99.90;;;-144.05;66.48;56870.06;5018200;28;20041;-87
2023/07/01 07:55:42;;;;;;;8.48;3.05;;;17.30;99.90;;;-144.05;65.97;56865.81;5018477;28;20052;-85
2023/07/01 07:58:08;;;;;;;6.55;2.90;;;17.30;99.90;;;-144.05;65.97;56874.31;5018721;28;20139;-83
2023/07/01 08:00:34;;;;;;;5.70;2.70;;;17.30;99.90;;;-144.05;66.11;56867.94;5019515;28;20049;-85
2023/07/01 08:02:59;;;;;;;4.57;2.00;;;17.50;99.90;;;-144.05;65.99;56882.81;5017619;28;20022;-85
2023/07/01 08:05:27;;;;;;;5.53;2.50;;;17.50;99.90;;;-144.05;65.40;56887.06;5051979;28;20040;-77
2023/07/01 08:07:54;;;;;;;5.97;2.35;;;17.60;99.90;;;-144.05;65.54;56870.06;5028104;28;20128;-83
2023/07/01 08:10:19;;;;;;;4.10;2.00;;;17.70;99.90;;;-144.05;65.80;56874.31;5018619;28;20378;-82
2023/07/01 08:12:46;;;;;;;6.00;2.53;;;17.70;99.90;;;-144.05;66.21;56870.06;5018873;28;20120;-83
2023/07/01 08:15:11;;;;;;;3.65;1.80;;;17.70;99.90;;;-144.05;64.84;56872.19;5019476;28;20037;-85
2023/07/01 08:17:39;;;;;;;4.38;2.60;;;17.90;99.90;;;-144.05;64.72;56870.06;5018123;28;20037;-84
2023/07/01 08:20:06;;;;;;;5.75;2.22;;;17.90;99.90;;;-144.05;64.70;56876.44;5017466;28;20075;-83
2023/07/01 08:22:31;;;;;;;6.15;2.20;;;18.00;99.90;;;-144.05;64.67;56846.72;5017452;28;20033;-85
2023/07/01 08:24:58;;;;;;;4.68;2.03;;;18.00;99.90;;;-144.05;64.33;56853.09;5017085;28;20486;-86
2023/07/01 08:27:25;;;;;;;3.15;1.95;;;17.90;99.90;;;-144.05;64.36;56887.06;5017464;28;20108;-86
2023/07/01 08:29:51;;;;;;;4.53;2.17;;;18.00;99.90;;;-144.05;64.84;56872.19;4998749;28;20474;-83
2023/07/01 08:32:17;;;;;;;6.30;2.35;;;17.80;99.90;;;-144.05;63.86;56884.94;4998681;28;20147;-84
2023/07/01 08:34:42;;;;;;;5.68;2.20;;;17.90;99.90;;;-144.05;64.35;56848.84;4999098;28;20073;-86
2023/07/01 08:37:08;;;;;;;5.15;2.30;;;17.80;99.90;;;-144.05;65.12;56891.31;4999938;28;20030;-84
2023/07/01 08:39:34;;;;;;;6.35;2.20;;;17.90;99.90;;;-144.05;64.41;56882.81;4999445;28;20026;-83
2023/07/01 08:42:04;;;;;;;6.35;2.00;;;18.00;99.90;;;-144.05;65.04;56882.81;4999512;28;20473;-85
2023/07/01 08:44:31;;;;;;;5.43;2.00;;;18.00;99.90;;;-144.05;64.36;56844.59;5016903;28;20294;-84
2023/07/01 08:47:01;;;;;;;6.50;2.28;;;18.10;99.90;;;-144.05;65.27;56861.56;5015478;28;20109;-85
2023/07/01 08:49:34;;;;;;;2.88;1.90;;;18.10;99.90;;;-144.05;64.63;56863.69;4998029;28;20022;-84
2023/07/01 08:52:11;;;;;;;3.10;2.13;;;18.10;99.90;;;-144.05;64.04;56874.31;4998830;28;20102;-85
2023/07/01 08:54:39;;;;;;;3.67;2.05;;;18.20;99.90;;;-144.05;64.04;56863.69;5000561;28;20049;-82
2023/07/01 08:57:09;;;;;;;1.77;1.50;;;18.40;99.90;;;-144.05;63.74;56889.19;5002378;28;20030;-84
2023/07/01 08:59:36;;;;;;;3.17;1.55;;;18.40;99.90;;;-144.05;63.53;56887.06;5001503;28;20057;-83
2023/07/01 09:02:02;;;;;;;3.53;1.88;;;18.30;99.90;;;-144.05;63.92;56870.06;5001995;28;20033;-82
2023/07/01 09:04:28;;;;;;;2.70;1.70;;;18.30;99.90;;;-144.05;63.51;56874.31;5019382;28;20026;-84
2023/07/01 09:06:54;;;;;;;5.03;1.75;;;18.40;99.90;;;-144.05;64.04;56850.97;5018552;28;20036;-84
2023/07/01 09:09:20;;;;;;;2.50;1.73;;;18.40;99.90;;;-144.05;63.74;56867.94;5001173;28;20037;-83
2023/07/01 09:11:47;;;;;;;4.20;1.75;;;18.50;99.90;;;-144.05;64.89;56870.06;5007296;28;20026;-84
2023/07/01 09:14:14;;;;;;;2.28;1.88;;;18.50;99.90;;;-144.05;64.60;56863.69;5008755;28;20685;-85
2023/07/01 09:16:40;;;;;;;2.38;1.60;;;18.50;99.90;;;-144.05;65.33;56861.56;5008544;28;20035;-85
2023/07/01 09:19:14;;;;;;;3.70;2.10;;;18.40;99.90;;;-144.05;66.05;56863.69;5008049;28;20056;-82
2023/07/01 09:21:41;;;;;;;3.17;1.70;;;18.30;99.90;;;-144.05;67.02;56867.94;5007968;28;20026;-83
2023/07/01 09:24:12;;;;;;;3.88;2.10;;;18.20;99.90;;;-144.05;67.70;56865.81;5009186;28;20026;-84
2023/07/01 09:26:39;;;;;;;4.63;1.85;;;18.10;99.90;;;-144.05;68.87;56870.06;5003458;28;20064;-83
2023/07/01 09:29:16;;;;;;;5.97;2.40;;;18.00;99.90;;;-144.05;68.96;56878.56;4999296;28;20030;-83
2023/07/01 09:31:51;;;;;;;5.55;2.28;;;18.00;99.90;;;-144.05;69.09;56872.19;5000522;28;20057;-84
2023/07/01 09:34:18;;;;;;;4.25;2.08;;;18.00;99.90;;;-144.05;70.21;56859.47;5000631;28;20437;-84
2023/07/01 09:36:45;;;;;;;3.50;1.55;;;18.00;99.90;;;-144.05;70.11;56855.22;4999679;28;20128;-85
2023/07/01 09:39:11;;;;;;;2.95;1.95;;;18.00;99.90;;;-144.05;70.63;56850.97;5000439;28;20065;-86
2023/07/01 09:41:37;;;;;;;3.30;1.90;;;17.90;99.90;;;-144.05;70.35;56874.31;5017066;28;20025;-84
2023/07/01 09:44:18;;;;;;;4.28;1.58;;;18.00;99.90;;;-144.05;70.29;56872.19;5000221;28;20030;-83
2023/07/01 09:46:50;;;;;;;3.40;1.63;;;18.00;99.90;;;-144.05;70.02;56882.81;5018061;28;20076;-84
2023/07/01 09:49:18;;;;;;;4.38;1.60;;;18.10;99.90;;;-144.05;69.57;56884.94;5000358;28;20409;-86
2023/07/01 09:51:51;;;;;;;2.45;1.40;;;18.30;99.90;;;-144.05;68.97;56863.69;5001034;28;20088;-87
2023/07/01 09:54:26;;;;;;;2.42;1.70;;;18.40;99.90;;;-144.05;69.21;56882.81;5001756;28;20030;-84
2023/07/01 09:56:58;;;;;;;2.33;1.30;;;18.60;99.90;;;-144.05;68.09;56882.81;5000408;28;20315;-80
2023/07/01 09:59:27;;;;;;;2.13;1.17;;;18.70;99.90;;;-144.05;66.41;56895.56;5020716;28;20037;-83
2023/07/01 10:01:55;;;;;;;1.40;1.20;;;18.80;99.90;;;-144.05;68.20;56882.81;5001346;28;20529;-84
2023/07/01 10:04:28;;;;;;;2.03;1.40;;;18.80;99.90;;;-144.05;68.71;56867.94;5000389;28;20042;-84
2023/07/01 10:06:55;;;;;;;3.03;1.33;;;18.60;99.90;;;-144.05;70.27;56870.06;5000025;28;20030;-84
2023/07/01 10:09:23;;;;;;;1.50;1.40;;;18.40;99.90;;;-144.05;69.80;56870.06;4999575;28;20061;-83